sensor_id;sensor_type;location;lat;lon;timestamp;P1;durP1;ratioP1;P2;durP2;ratioP2
70683;SDS011;58263;48.146;11.440;2022-08-21T00:01:55;1.63;;;1.53;;
70683;SDS011;58263;48.146;11.440;2022-08-21T00:04:21;1.73;;;1.40;;
70683;SDS011;58263;48.146;11.440;2022-08-21T00:06:47;1.52;;;1.42;;
70683;SDS011;58263;48.146;11.440;2022-08-21T00:09:12;1.40;;;1.30;;
70683;SDS011;58263;48.146;11.440;2022-08-21T00:11:37;4.10;;;1.67;;
70683;SDS011;58263;48.146;11.440;2022-08-21T00:14:04;2.05;;;1.33;;
70683;SDS011;58263;48.146;11.440;2022-08-21T00:16:31;1.73;;;1.20;;
70683;SDS011;58263;48.146;11.440;2022-08-21T00:18:56;1.05;;;1.05;;
70683;SDS011;58263;48.146;11.440;2022-08-21T00:21:22;1.30;;;1.20;;
70683;SDS011;58263;48.146;11.440;2022-08-21T00:23:48;1.33;;;1.23;;
70683;SDS011;58263;48.146;11.440;2022-08-21T00:26:13;2.30;;;1.30;;
70683;SDS011;58263;48.146;11.440;2022-08-21T00:28:38;2.53;;;1.00;;
70683;SDS011;58263;48.146;11.440;2022-08-21T00:31:04;1.60;;;1.47;;
70683;SDS011;58263;48.146;11.440;2022-08-21T00:33:29;1.90;;;1.10;;
70683;SDS011;58263;48.146;11.440;2022-08-21T00:35:55;1.25;;;1.15;;
70683;SDS011;58263;48.146;11.440;2022-08-21T00:38:20;1.40;;;1.30;;
70683;SDS011;58263;48.146;11.440;2022-08-21T00:40:47;1.20;;;1.20;;
70683;SDS011;58263;48.146;11.440;2022-08-21T00:43:18;1.42;;;1.40;;
70683;SDS011;58263;48.146;11.440;2022-08-21T00:45:49;1.50;;;1.40;;
70683;SDS011;58263;48.146;11.440;2022-08-21T00:48:14;1.40;;;1.25;;
70683;SDS011;58263;48.146;11.440;2022-08-21T00:50:43;1.45;;;1.35;;
70683;SDS011;58263;48.146;11.440;2022-08-21T00:53:13;1.38;;;1.27;;
70683;SDS011;58263;48.146;11.440;2022-08-21T00:55:39;1.60;;;1.50;;
70683;SDS011;58263;48.146;11.440;2022-08-21T00:58:06;1.02;;;0.98;;
70683;SDS011;58263;48.146;11.440;2022-08-21T01:00:36;1.30;;;1.20;;
70683;SDS011;58263;48.146;11.440;2022-08-21T01:03:08;1.40;;;1.30;;
70683;SDS011;58263;48.146;11.440;2022-08-21T01:05:36;3.15;;;1.38;;
70683;SDS011;58263;48.146;11.440;2022-08-21T01:08:03;2.67;;;1.25;;
70683;SDS011;58263;48.146;11.440;2022-08-21T01:12:56;1.95;;;1.27;;
70683;SDS011;58263;48.146;11.440;2022-08-21T01:15:24;2.33;;;1.40;;
70683;SDS011;58263;48.146;11.440;2022-08-21T01:17:55;1.45;;;1.20;;
70683;SDS011;58263;48.146;11.440;2022-08-21T01:20:20;3.00;;;1.30;;
70683;SDS011;58263;48.146;11.440;2022-08-21T01:22:45;1.83;;;1.40;;
70683;SDS011;58263;48.146;11.440;2022-08-21T01:25:12;1.50;;;1.40;;
70683;SDS011;58263;48.146;11.440;2022-08-21T01:27:40;1.40;;;1.30;;
70683;SDS011;58263;48.146;11.440;2022-08-21T01:30:39;1.23;;;1.23;;
70683;SDS011;58263;48.146;11.440;2022-08-21T01:35:24;2.33;;;1.30;;
70683;SDS011;58263;48.146;11.440;2022-08-21T01:37:50;1.50;;;1.40;;
70683;SDS011;58263;48.146;11.440;2022-08-21T01:40:16;2.38;;;1.30;;
70683;SDS011;58263;48.146;11.440;2022-08-21T01:42:42;1.25;;;1.23;;
70683;SDS011;58263;48.146;11.440;2022-08-21T01:45:08;2.28;;;1.30;;
70683;SDS011;58263;48.146;11.440;2022-08-21T01:47:35;3.50;;;1.38;;
70683;SDS011;58263;48.146;11.440;2022-08-21T01:50:02;1.30;;;1.20;;
70683;SDS011;58263;48.146;11.440;2022-08-21T01:52:29;1.65;;;1.50;;
70683;SDS011;58263;48.146;11.440;2022-08-21T01:54:54;2.95;;;1.42;;
70683;SDS011;58263;48.146;11.440;2022-08-21T01:57:19;1.40;;;1.40;;
70683;SDS011;58263;48.146;11.440;2022-08-21T01:59:45;2.45;;;1.20;;
70683;SDS011;58263;48.146;11.440;2022-08-21T02:02:10;2.83;;;1.50;;
70683;SDS011;58263;48.146;11.440;2022-08-21T02:04:36;1.60;;;1.33;;
70683;SDS011;58263;48.146;11.440;2022-08-21T02:07:01;4.73;;;1.60;;
70683;SDS011;58263;48.146;11.440;2022-08-21T02:09:27;3.13;;;1.50;;
70683;SDS011;58263;48.146;11.440;2022-08-21T02:11:53;1.27;;;1.23;;
70683;SDS011;58263;48.146;11.440;2022-08-21T02:14:19;2.40;;;1.52;;
70683;SDS011;58263;48.146;11.440;2022-08-21T02:16:45;1.33;;;1.23;;
70683;SDS011;58263;48.146;11.440;2022-08-21T02:19:12;1.55;;;1.42;;
70683;SDS011;58263;48.146;11.440;2022-08-21T02:21:38;1.35;;;1.25;;
70683;SDS011;58263;48.146;11.440;2022-08-21T02:24:04;2.88;;;1.25;;
70683;SDS011;58263;48.146;11.440;2022-08-21T02:26:30;1.45;;;1.35;;
70683;SDS011;58263;48.146;11.440;2022-08-21T02:28:56;1.40;;;1.30;;
70683;SDS011;58263;48.146;11.440;2022-08-21T02:31:21;1.42;;;1.33;;
70683;SDS011;58263;48.146;11.440;2022-08-21T02:33:46;2.63;;;1.60;;
70683;SDS011;58263;48.146;11.440;2022-08-21T02:36:12;1.27;;;1.23;;
70683;SDS011;58263;48.146;11.440;2022-08-21T02:38:38;2.28;;;1.17;;
70683;SDS011;58263;48.146;11.440;2022-08-21T02:41:06;1.63;;;0.93;;
70683;SDS011;58263;48.146;11.440;2022-08-21T02:43:33;1.95;;;1.38;;
70683;SDS011;58263;48.146;11.440;2022-08-21T02:45:59;1.10;;;1.10;;
70683;SDS011;58263;48.146;11.440;2022-08-21T02:48:26;2.10;;;1.40;;
70683;SDS011;58263;48.146;11.440;2022-08-21T02:53:23;1.67;;;1.58;;
70683;SDS011;58263;48.146;11.440;2022-08-21T02:55:49;1.50;;;1.40;;
70683;SDS011;58263;48.146;11.440;2022-08-21T02:58:17;1.70;;;1.60;;
70683;SDS011;58263;48.146;11.440;2022-08-21T03:00:44;1.35;;;1.23;;
70683;SDS011;58263;48.146;11.440;2022-08-21T03:03:10;1.77;;;1.40;;
70683;SDS011;58263;48.146;11.440;2022-08-21T03:05:37;3.28;;;1.52;;
70683;SDS011;58263;48.146;11.440;2022-08-21T03:08:04;2.00;;;1.23;;
70683;SDS011;58263;48.146;11.440;2022-08-21T03:10:34;1.60;;;1.50;;
70683;SDS011;58263;48.146;11.440;2022-08-21T03:13:00;2.42;;;1.50;;
70683;SDS011;58263;48.146;11.440;2022-08-21T03:15:27;1.25;;;1.15;;
70683;SDS011;58263;48.146;11.440;2022-08-21T03:17:53;3.92;;;1.73;;
70683;SDS011;58263;48.146;11.440;2022-08-21T03:20:20;1.38;;;1.27;;
70683;SDS011;58263;48.146;11.440;2022-08-21T03:22:48;3.80;;;1.52;;
70683;SDS011;58263;48.146;11.440;2022-08-21T03:25:14;1.40;;;1.30;;
70683;SDS011;58263;48.146;11.440;2022-08-21T03:27:41;2.35;;;1.27;;
70683;SDS011;58263;48.146;11.440;2022-08-21T03:30:07;1.60;;;1.50;;
70683;SDS011;58263;48.146;11.440;2022-08-21T03:32:33;2.75;;;1.48;;
70683;SDS011;58263;48.146;11.440;2022-08-21T03:35:00;1.30;;;1.20;;
70683;SDS011;58263;48.146;11.440;2022-08-21T03:37:26;1.63;;;1.33;;
70683;SDS011;58263;48.146;11.440;2022-08-21T03:39:52;1.52;;;1.42;;
70683;SDS011;58263;48.146;11.440;2022-08-21T03:42:18;2.72;;;1.50;;
70683;SDS011;58263;48.146;11.440;2022-08-21T03:44:43;3.05;;;1.50;;
70683;SDS011;58263;48.146;11.440;2022-08-21T03:47:09;1.40;;;1.30;;
70683;SDS011;58263;48.146;11.440;2022-08-21T03:49:34;1.77;;;1.40;;
70683;SDS011;58263;48.146;11.440;2022-08-21T03:52:01;1.20;;;1.10;;
70683;SDS011;58263;48.146;11.440;2022-08-21T03:54:26;1.35;;;1.25;;
70683;SDS011;58263;48.146;11.440;2022-08-21T03:56:52;4.00;;;1.40;;
70683;SDS011;58263;48.146;11.440;2022-08-21T03:59:18;1.33;;;1.13;;
70683;SDS011;58263;48.146;11.440;2022-08-21T04:01:53;3.67;;;1.50;;
70683;SDS011;58263;48.146;11.440;2022-08-21T04:04:23;1.23;;;1.17;;
70683;SDS011;58263;48.146;11.440;2022-08-21T04:06:49;4.25;;;1.63;;
70683;SDS011;58263;48.146;11.440;2022-08-21T04:09:15;1.52;;;1.40;;
70683;SDS011;58263;48.146;11.440;2022-08-21T04:11:40;1.45;;;1.35;;
70683;SDS011;58263;48.146;11.440;2022-08-21T04:14:06;2.70;;;1.48;;
70683;SDS011;58263;48.146;11.440;2022-08-21T04:16:31;2.53;;;1.53;;
70683;SDS011;58263;48.146;11.440;2022-08-21T04:18:56;2.20;;;1.27;;
70683;SDS011;58263;48.146;11.440;2022-08-21T04:21:22;1.50;;;1.40;;
70683;SDS011;58263;48.146;11.440;2022-08-21T04:23:48;1.48;;;1.38;;
70683;SDS011;58263;48.146;11.440;2022-08-21T04:26:14;1.42;;;1.33;;
70683;SDS011;58263;48.146;11.440;2022-08-21T04:28:40;1.90;;;1.65;;
70683;SDS011;58263;48.146;11.440;2022-08-21T04:31:06;3.03;;;1.60;;
70683;SDS011;58263;48.146;11.440;2022-08-21T04:33:33;1.20;;;1.00;;
70683;SDS011;58263;48.146;11.440;2022-08-21T04:35:58;1.75;;;1.50;;
70683;SDS011;58263;48.146;11.440;2022-08-21T04:38:23;1.60;;;1.50;;
70683;SDS011;58263;48.146;11.440;2022-08-21T04:40:49;1.97;;;1.40;;
70683;SDS011;58263;48.146;11.440;2022-08-21T04:43:16;1.23;;;1.15;;
70683;SDS011;58263;48.146;11.440;2022-08-21T04:45:42;1.63;;;1.30;;
70683;SDS011;58263;48.146;11.440;2022-08-21T04:53:07;1.88;;;1.75;;
70683;SDS011;58263;48.146;11.440;2022-08-21T04:55:36;1.35;;;1.27;;
70683;SDS011;58263;48.146;11.440;2022-08-21T04:58:04;1.40;;;1.30;;
70683;SDS011;58263;48.146;11.440;2022-08-21T05:00:31;1.20;;;1.20;;
70683;SDS011;58263;48.146;11.440;2022-08-21T05:02:57;1.30;;;1.20;;
70683;SDS011;58263;48.146;11.440;2022-08-21T05:05:24;1.50;;;1.40;;
70683;SDS011;58263;48.146;11.440;2022-08-21T05:07:50;1.23;;;1.23;;
70683;SDS011;58263;48.146;11.440;2022-08-21T05:10:18;3.67;;;1.65;;
70683;SDS011;58263;48.146;11.440;2022-08-21T05:12:43;2.70;;;1.60;;
70683;SDS011;58263;48.146;11.440;2022-08-21T05:15:10;3.08;;;1.52;;
70683;SDS011;58263;48.146;11.440;2022-08-21T05:17:37;1.25;;;1.25;;
70683;SDS011;58263;48.146;11.440;2022-08-21T05:20:03;2.58;;;1.50;;
70683;SDS011;58263;48.146;11.440;2022-08-21T05:22:28;2.03;;;1.55;;
70683;SDS011;58263;48.146;11.440;2022-08-21T05:24:54;2.30;;;1.50;;
70683;SDS011;58263;48.146;11.440;2022-08-21T05:27:19;2.70;;;1.40;;
70683;SDS011;58263;48.146;11.440;2022-08-21T05:29:44;1.50;;;1.40;;
70683;SDS011;58263;48.146;11.440;2022-08-21T05:32:10;1.63;;;1.47;;
70683;SDS011;58263;48.146;11.440;2022-08-21T05:34:37;2.08;;;1.52;;
70683;SDS011;58263;48.146;11.440;2022-08-21T05:37:02;1.58;;;1.48;;
70683;SDS011;58263;48.146;11.440;2022-08-21T05:39:28;1.90;;;1.80;;
70683;SDS011;58263;48.146;11.440;2022-08-21T05:41:53;2.65;;;1.90;;
70683;SDS011;58263;48.146;11.440;2022-08-21T05:44:18;2.00;;;1.50;;
70683;SDS011;58263;48.146;11.440;2022-08-21T05:46:43;6.97;;;1.57;;
70683;SDS011;58263;48.146;11.440;2022-08-21T05:49:09;2.90;;;1.83;;
70683;SDS011;58263;48.146;11.440;2022-08-21T05:51:36;2.83;;;1.35;;
70683;SDS011;58263;48.146;11.440;2022-08-21T05:54:01;1.60;;;1.50;;
70683;SDS011;58263;48.146;11.440;2022-08-21T05:56:27;1.48;;;1.38;;
70683;SDS011;58263;48.146;11.440;2022-08-21T05:58:53;1.50;;;1.40;;
70683;SDS011;58263;48.146;11.440;2022-08-21T06:01:18;1.50;;;1.40;;
70683;SDS011;58263;48.146;11.440;2022-08-21T06:03:44;1.35;;;1.35;;
70683;SDS011;58263;48.146;11.440;2022-08-21T06:06:09;1.73;;;1.63;;
70683;SDS011;58263;48.146;11.440;2022-08-21T06:08:35;3.70;;;1.58;;
70683;SDS011;58263;48.146;11.440;2022-08-21T06:11:00;1.70;;;1.60;;
70683;SDS011;58263;48.146;11.440;2022-08-21T06:13:26;2.33;;;1.73;;
70683;SDS011;58263;48.146;11.440;2022-08-21T06:18:32;1.65;;;1.50;;
70683;SDS011;58263;48.146;11.440;2022-08-21T06:20:58;2.65;;;1.80;;
70683;SDS011;58263;48.146;11.440;2022-08-21T06:23:23;2.78;;;1.80;;
70683;SDS011;58263;48.146;11.440;2022-08-21T06:25:48;2.43;;;1.50;;
70683;SDS011;58263;48.146;11.440;2022-08-21T06:28:14;2.27;;;1.70;;
70683;SDS011;58263;48.146;11.440;2022-08-21T06:30:39;4.13;;;1.57;;
70683;SDS011;58263;48.146;11.440;2022-08-21T06:33:05;2.00;;;1.80;;
70683;SDS011;58263;48.146;11.440;2022-08-21T06:35:31;3.30;;;1.70;;
70683;SDS011;58263;48.146;11.440;2022-08-21T06:37:58;2.13;;;1.70;;
70683;SDS011;58263;48.146;11.440;2022-08-21T06:40:24;3.28;;;1.80;;
70683;SDS011;58263;48.146;11.440;2022-08-21T06:42:53;2.47;;;1.90;;
70683;SDS011;58263;48.146;11.440;2022-08-21T06:45:19;6.00;;;1.88;;
70683;SDS011;58263;48.146;11.440;2022-08-21T06:47:45;2.05;;;1.70;;
70683;SDS011;58263;48.146;11.440;2022-08-21T06:50:10;2.70;;;2.47;;
70683;SDS011;58263;48.146;11.440;2022-08-21T06:52:36;4.20;;;2.20;;
70683;SDS011;58263;48.146;11.440;2022-08-21T06:55:02;2.45;;;1.70;;
70683;SDS011;58263;48.146;11.440;2022-08-21T06:57:29;1.52;;;1.42;;
70683;SDS011;58263;48.146;11.440;2022-08-21T06:59:54;1.80;;;1.70;;
70683;SDS011;58263;48.146;11.440;2022-08-21T07:02:20;2.40;;;2.03;;
70683;SDS011;58263;48.146;11.440;2022-08-21T07:04:45;4.77;;;2.23;;
70683;SDS011;58263;48.146;11.440;2022-08-21T07:07:11;3.90;;;2.03;;
70683;SDS011;58263;48.146;11.440;2022-08-21T07:09:36;3.30;;;1.70;;
70683;SDS011;58263;48.146;11.440;2022-08-21T07:12:01;6.17;;;2.10;;
70683;SDS011;58263;48.146;11.440;2022-08-21T07:14:27;5.20;;;1.83;;
70683;SDS011;58263;48.146;11.440;2022-08-21T07:16:52;5.22;;;2.00;;
70683;SDS011;58263;48.146;11.440;2022-08-21T07:19:18;2.20;;;2.00;;
70683;SDS011;58263;48.146;11.440;2022-08-21T07:21:43;2.67;;;1.90;;
70683;SDS011;58263;48.146;11.440;2022-08-21T07:24:09;4.00;;;2.07;;
70683;SDS011;58263;48.146;11.440;2022-08-21T07:26:34;1.92;;;1.80;;
70683;SDS011;58263;48.146;11.440;2022-08-21T07:28:59;2.45;;;2.25;;
70683;SDS011;58263;48.146;11.440;2022-08-21T07:31:25;2.27;;;2.00;;
70683;SDS011;58263;48.146;11.440;2022-08-21T07:33:52;1.98;;;1.75;;
70683;SDS011;58263;48.146;11.440;2022-08-21T07:36:18;2.22;;;1.92;;
70683;SDS011;58263;48.146;11.440;2022-08-21T07:38:43;5.47;;;2.40;;
70683;SDS011;58263;48.146;11.440;2022-08-21T07:41:13;5.13;;;2.30;;
70683;SDS011;58263;48.146;11.440;2022-08-21T07:43:41;2.17;;;1.98;;
70683;SDS011;58263;48.146;11.440;2022-08-21T07:46:06;2.65;;;2.00;;
70683;SDS011;58263;48.146;11.440;2022-08-21T07:48:31;4.23;;;2.47;;
70683;SDS011;58263;48.146;11.440;2022-08-21T07:50:57;3.60;;;2.03;;
70683;SDS011;58263;48.146;11.440;2022-08-21T07:53:23;2.80;;;2.30;;
70683;SDS011;58263;48.146;11.440;2022-08-21T07:55:48;3.58;;;2.22;;
70683;SDS011;58263;48.146;11.440;2022-08-21T07:58:14;4.37;;;2.27;;
70683;SDS011;58263;48.146;11.440;2022-08-21T08:00:39;4.22;;;2.50;;
70683;SDS011;58263;48.146;11.440;2022-08-21T08:03:05;3.70;;;2.70;;
70683;SDS011;58263;48.146;11.440;2022-08-21T08:05:31;2.93;;;2.33;;
70683;SDS011;58263;48.146;11.440;2022-08-21T08:07:57;6.05;;;2.30;;
70683;SDS011;58263;48.146;11.440;2022-08-21T08:10:23;3.42;;;2.50;;
70683;SDS011;58263;48.146;11.440;2022-08-21T08:12:49;2.85;;;2.35;;
70683;SDS011;58263;48.146;11.440;2022-08-21T08:15:17;3.20;;;2.20;;
70683;SDS011;58263;48.146;11.440;2022-08-21T08:17:44;3.67;;;2.22;;
70683;SDS011;58263;48.146;11.440;2022-08-21T08:20:10;2.83;;;2.30;;
70683;SDS011;58263;48.146;11.440;2022-08-21T08:22:38;3.30;;;2.17;;
70683;SDS011;58263;48.146;11.440;2022-08-21T08:25:04;3.90;;;2.28;;
70683;SDS011;58263;48.146;11.440;2022-08-21T08:27:31;6.60;;;2.50;;
70683;SDS011;58263;48.146;11.440;2022-08-21T08:29:56;2.95;;;2.05;;
70683;SDS011;58263;48.146;11.440;2022-08-21T08:32:22;4.00;;;2.45;;
70683;SDS011;58263;48.146;11.440;2022-08-21T08:34:48;2.83;;;2.13;;
70683;SDS011;58263;48.146;11.440;2022-08-21T08:37:16;3.53;;;2.83;;
70683;SDS011;58263;48.146;11.440;2022-08-21T08:39:43;3.58;;;2.72;;
70683;SDS011;58263;48.146;11.440;2022-08-21T08:42:09;4.72;;;2.85;;
70683;SDS011;58263;48.146;11.440;2022-08-21T08:44:41;3.15;;;2.85;;
70683;SDS011;58263;48.146;11.440;2022-08-21T08:47:08;3.53;;;3.22;;
70683;SDS011;58263;48.146;11.440;2022-08-21T08:52:28;4.88;;;3.05;;
70683;SDS011;58263;48.146;11.440;2022-08-21T08:55:21;2.78;;;2.58;;
70683;SDS011;58263;48.146;11.440;2022-08-21T08:57:51;5.10;;;2.78;;
70683;SDS011;58263;48.146;11.440;2022-08-21T09:00:20;3.50;;;2.40;;
70683;SDS011;58263;48.146;11.440;2022-08-21T09:02:47;2.83;;;2.63;;
70683;SDS011;58263;48.146;11.440;2022-08-21T09:05:24;3.50;;;2.92;;
70683;SDS011;58263;48.146;11.440;2022-08-21T09:08:22;5.38;;;2.90;;
70683;SDS011;58263;48.146;11.440;2022-08-21T09:14:22;3.38;;;2.60;;
70683;SDS011;58263;48.146;11.440;2022-08-21T09:16:49;2.97;;;2.60;;
70683;SDS011;58263;48.146;11.440;2022-08-21T09:19:39;2.90;;;2.60;;
70683;SDS011;58263;48.146;11.440;2022-08-21T09:24:42;5.72;;;2.70;;
70683;SDS011;58263;48.146;11.440;2022-08-21T09:27:17;3.47;;;2.38;;
70683;SDS011;58263;48.146;11.440;2022-08-21T09:29:45;2.85;;;2.60;;
70683;SDS011;58263;48.146;11.440;2022-08-21T09:32:28;6.20;;;2.80;;
70683;SDS011;58263;48.146;11.440;2022-08-21T09:37:27;6.57;;;2.67;;
70683;SDS011;58263;48.146;11.440;2022-08-21T09:39:54;3.35;;;2.50;;
70683;SDS011;58263;48.146;11.440;2022-08-21T09:42:25;3.10;;;2.50;;
70683;SDS011;58263;48.146;11.440;2022-08-21T09:47:41;3.05;;;2.40;;
70683;SDS011;58263;48.146;11.440;2022-08-21T09:50:12;3.63;;;2.20;;
70683;SDS011;58263;48.146;11.440;2022-08-21T09:52:45;3.10;;;2.38;;
70683;SDS011;58263;48.146;11.440;2022-08-21T09:55:15;3.60;;;2.20;;
70683;SDS011;58263;48.146;11.440;2022-08-21T09:58:18;3.13;;;2.55;;
70683;SDS011;58263;48.146;11.440;2022-08-21T10:00:45;3.60;;;2.53;;
70683;SDS011;58263;48.146;11.440;2022-08-21T10:03:22;2.63;;;2.20;;
70683;SDS011;58263;48.146;11.440;2022-08-21T10:05:59;2.17;;;2.08;;
70683;SDS011;58263;48.146;11.440;2022-08-21T10:08:30;2.60;;;2.40;;
70683;SDS011;58263;48.146;11.440;2022-08-21T10:11:12;2.28;;;1.95;;
70683;SDS011;58263;48.146;11.440;2022-08-21T10:19:34;3.83;;;2.33;;
70683;SDS011;58263;48.146;11.440;2022-08-21T10:28:10;2.63;;;2.42;;
70683;SDS011;58263;48.146;11.440;2022-08-21T10:30:50;3.63;;;2.10;;
70683;SDS011;58263;48.146;11.440;2022-08-21T10:33:39;2.70;;;2.35;;
70683;SDS011;58263;48.146;11.440;2022-08-21T10:36:14;3.50;;;2.50;;
70683;SDS011;58263;48.146;11.440;2022-08-21T10:50:31;2.80;;;2.35;;
70683;SDS011;58263;48.146;11.440;2022-08-21T10:55:52;2.38;;;2.28;;
70683;SDS011;58263;48.146;11.440;2022-08-21T10:58:28;3.55;;;2.38;;
70683;SDS011;58263;48.146;11.440;2022-08-21T11:00:58;3.22;;;2.40;;
70683;SDS011;58263;48.146;11.440;2022-08-21T11:03:31;2.60;;;2.40;;
70683;SDS011;58263;48.146;11.440;2022-08-21T11:06:05;6.18;;;2.47;;
70683;SDS011;58263;48.146;11.440;2022-08-21T11:08:46;2.53;;;2.33;;
70683;SDS011;58263;48.146;11.440;2022-08-21T11:11:28;3.10;;;2.10;;
70683;SDS011;58263;48.146;11.440;2022-08-21T11:14:00;4.60;;;2.30;;
70683;SDS011;58263;48.146;11.440;2022-08-21T11:16:35;3.17;;;2.20;;
70683;SDS011;58263;48.146;11.440;2022-08-21T11:29:58;2.45;;;2.25;;
70683;SDS011;58263;48.146;11.440;2022-08-21T11:37:38;2.22;;;1.88;;
70683;SDS011;58263;48.146;11.440;2022-08-21T11:51:59;5.00;;;2.00;;
70683;SDS011;58263;48.146;11.440;2022-08-21T11:59:36;3.15;;;2.05;;
70683;SDS011;58263;48.146;11.440;2022-08-21T12:02:12;2.40;;;2.20;;
70683;SDS011;58263;48.146;11.440;2022-08-21T12:04:45;2.70;;;2.30;;
70683;SDS011;58263;48.146;11.440;2022-08-21T12:07:59;3.00;;;2.40;;
70683;SDS011;58263;48.146;11.440;2022-08-21T12:10:14;5.88;;;2.03;;
70683;SDS011;58263;48.146;11.440;2022-08-21T12:12:42;2.40;;;2.20;;
70683;SDS011;58263;48.146;11.440;2022-08-21T12:15:14;2.50;;;2.25;;
70683;SDS011;58263;48.146;11.440;2022-08-21T12:17:50;4.55;;;2.30;;
70683;SDS011;58263;48.146;11.440;2022-08-21T12:25:38;3.03;;;2.27;;
70683;SDS011;58263;48.146;11.440;2022-08-21T12:28:13;3.97;;;2.33;;
70683;SDS011;58263;48.146;11.440;2022-08-21T12:30:41;2.92;;;2.47;;
70683;SDS011;58263;48.146;11.440;2022-08-21T12:36:05;4.70;;;2.42;;
70683;SDS011;58263;48.146;11.440;2022-08-21T12:41:17;2.38;;;2.10;;
70683;SDS011;58263;48.146;11.440;2022-08-21T12:43:50;2.50;;;2.30;;
70683;SDS011;58263;48.146;11.440;2022-08-21T12:46:22;4.78;;;2.28;;
70683;SDS011;58263;48.146;11.440;2022-08-21T12:48:56;2.47;;;2.20;;
70683;SDS011;58263;48.146;11.440;2022-08-21T12:51:26;2.60;;;2.17;;
70683;SDS011;58263;48.146;11.440;2022-08-21T12:53:58;2.10;;;2.00;;
70683;SDS011;58263;48.146;11.440;2022-08-21T12:56:31;2.10;;;2.00;;
70683;SDS011;58263;48.146;11.440;2022-08-21T12:59:03;3.30;;;2.03;;
70683;SDS011;58263;48.146;11.440;2022-08-21T13:01:31;2.45;;;2.00;;
70683;SDS011;58263;48.146;11.440;2022-08-21T13:04:00;7.30;;;2.47;;
70683;SDS011;58263;48.146;11.440;2022-08-21T13:06:29;9.55;;;2.38;;
70683;SDS011;58263;48.146;11.440;2022-08-21T13:08:58;2.55;;;2.03;;
70683;SDS011;58263;48.146;11.440;2022-08-21T13:11:31;4.07;;;2.40;;
70683;SDS011;58263;48.146;11.440;2022-08-21T13:13:57;3.55;;;2.20;;
70683;SDS011;58263;48.146;11.440;2022-08-21T13:16:27;6.63;;;2.00;;
70683;SDS011;58263;48.146;11.440;2022-08-21T13:18:56;6.57;;;2.40;;
70683;SDS011;58263;48.146;11.440;2022-08-21T13:21:31;3.40;;;2.17;;
70683;SDS011;58263;48.146;11.440;2022-08-21T13:24:37;4.97;;;2.38;;
70683;SDS011;58263;48.146;11.440;2022-08-21T13:26:58;4.13;;;2.33;;
70683;SDS011;58263;48.146;11.440;2022-08-21T13:29:29;4.05;;;2.42;;
70683;SDS011;58263;48.146;11.440;2022-08-21T13:31:57;5.00;;;2.50;;
70683;SDS011;58263;48.146;11.440;2022-08-21T13:34:26;3.13;;;1.85;;
70683;SDS011;58263;48.146;11.440;2022-08-21T13:36:56;2.83;;;2.22;;
70683;SDS011;58263;48.146;11.440;2022-08-21T13:39:24;3.42;;;2.22;;
70683;SDS011;58263;48.146;11.440;2022-08-21T13:41:50;2.55;;;2.10;;
70683;SDS011;58263;48.146;11.440;2022-08-21T13:44:24;2.20;;;2.00;;
70683;SDS011;58263;48.146;11.440;2022-08-21T13:47:05;2.15;;;1.95;;
70683;SDS011;58263;48.146;11.440;2022-08-21T13:49:35;3.08;;;2.75;;
70683;SDS011;58263;48.146;11.440;2022-08-21T13:52:03;3.67;;;2.35;;
70683;SDS011;58263;48.146;11.440;2022-08-21T13:54:34;2.60;;;2.30;;
70683;SDS011;58263;48.146;11.440;2022-08-21T13:57:14;3.33;;;2.45;;
70683;SDS011;58263;48.146;11.440;2022-08-21T14:02:40;2.33;;;2.13;;
70683;SDS011;58263;48.146;11.440;2022-08-21T14:05:13;3.45;;;2.53;;
70683;SDS011;58263;48.146;11.440;2022-08-21T14:07:41;2.53;;;2.33;;
70683;SDS011;58263;48.146;11.440;2022-08-21T14:10:14;2.67;;;2.30;;
70683;SDS011;58263;48.146;11.440;2022-08-21T14:12:48;2.00;;;1.90;;
70683;SDS011;58263;48.146;11.440;2022-08-21T14:15:23;2.58;;;2.00;;
70683;SDS011;58263;48.146;11.440;2022-08-21T14:17:50;4.43;;;2.17;;
70683;SDS011;58263;48.146;11.440;2022-08-21T14:20:29;2.65;;;2.00;;
70683;SDS011;58263;48.146;11.440;2022-08-21T14:22:57;2.47;;;2.28;;
70683;SDS011;58263;48.146;11.440;2022-08-21T14:30:20;2.10;;;2.00;;
70683;SDS011;58263;48.146;11.440;2022-08-21T14:32:56;3.53;;;2.17;;
70683;SDS011;58263;48.146;11.440;2022-08-21T14:35:22;2.95;;;2.20;;
70683;SDS011;58263;48.146;11.440;2022-08-21T14:37:48;3.53;;;2.33;;
70683;SDS011;58263;48.146;11.440;2022-08-21T14:40:18;3.85;;;2.03;;
70683;SDS011;58263;48.146;11.440;2022-08-21T14:42:45;2.65;;;2.20;;
70683;SDS011;58263;48.146;11.440;2022-08-21T14:45:14;3.08;;;2.10;;
70683;SDS011;58263;48.146;11.440;2022-08-21T14:47:42;2.60;;;2.40;;
70683;SDS011;58263;48.146;11.440;2022-08-21T14:50:09;3.17;;;2.17;;
70683;SDS011;58263;48.146;11.440;2022-08-21T14:52:35;3.30;;;2.50;;
70683;SDS011;58263;48.146;11.440;2022-08-21T14:55:01;4.35;;;2.55;;
70683;SDS011;58263;48.146;11.440;2022-08-21T14:57:27;3.60;;;2.53;;
70683;SDS011;58263;48.146;11.440;2022-08-21T14:59:55;2.65;;;2.38;;
70683;SDS011;58263;48.146;11.440;2022-08-21T15:02:21;5.28;;;2.40;;
70683;SDS011;58263;48.146;11.440;2022-08-21T15:04:46;2.37;;;2.17;;
70683;SDS011;58263;48.146;11.440;2022-08-21T15:07:12;3.20;;;2.60;;
70683;SDS011;58263;48.146;11.440;2022-08-21T15:09:37;3.13;;;2.67;;
70683;SDS011;58263;48.146;11.440;2022-08-21T15:12:03;2.88;;;2.10;;
70683;SDS011;58263;48.146;11.440;2022-08-21T15:14:31;3.45;;;2.70;;
70683;SDS011;58263;48.146;11.440;2022-08-21T15:17:03;3.22;;;2.70;;
70683;SDS011;58263;48.146;11.440;2022-08-21T15:19:30;2.55;;;2.35;;
70683;SDS011;58263;48.146;11.440;2022-08-21T15:21:56;4.45;;;2.40;;
70683;SDS011;58263;48.146;11.440;2022-08-21T15:24:22;3.38;;;2.70;;
70683;SDS011;58263;48.146;11.440;2022-08-21T15:26:47;5.03;;;2.30;;
70683;SDS011;58263;48.146;11.440;2022-08-21T15:29:13;4.00;;;2.40;;
70683;SDS011;58263;48.146;11.440;2022-08-21T15:31:50;3.05;;;2.50;;
70683;SDS011;58263;48.146;11.440;2022-08-21T15:34:17;4.28;;;2.38;;
70683;SDS011;58263;48.146;11.440;2022-08-21T15:36:42;2.40;;;2.20;;
70683;SDS011;58263;48.146;11.440;2022-08-21T15:39:08;2.63;;;2.40;;
70683;SDS011;58263;48.146;11.440;2022-08-21T15:41:33;3.27;;;2.60;;
70683;SDS011;58263;48.146;11.440;2022-08-21T15:43:58;2.87;;;2.57;;
70683;SDS011;58263;48.146;11.440;2022-08-21T15:46:24;3.13;;;2.83;;
70683;SDS011;58263;48.146;11.440;2022-08-21T15:48:49;3.23;;;2.40;;
70683;SDS011;58263;48.146;11.440;2022-08-21T15:51:15;4.50;;;2.55;;
70683;SDS011;58263;48.146;11.440;2022-08-21T15:53:41;6.25;;;2.90;;
70683;SDS011;58263;48.146;11.440;2022-08-21T15:56:49;2.95;;;2.30;;
70683;SDS011;58263;48.146;11.440;2022-08-21T15:59:02;3.25;;;2.50;;
70683;SDS011;58263;48.146;11.440;2022-08-21T16:01:31;3.58;;;2.20;;
70683;SDS011;58263;48.146;11.440;2022-08-21T16:03:57;9.07;;;2.55;;
70683;SDS011;58263;48.146;11.440;2022-08-21T16:06:23;3.78;;;2.70;;
70683;SDS011;58263;48.146;11.440;2022-08-21T16:08:48;3.17;;;2.63;;
70683;SDS011;58263;48.146;11.440;2022-08-21T16:11:14;5.07;;;2.67;;
70683;SDS011;58263;48.146;11.440;2022-08-21T16:13:41;2.78;;;2.58;;
70683;SDS011;58263;48.146;11.440;2022-08-21T16:16:13;4.28;;;2.58;;
70683;SDS011;58263;48.146;11.440;2022-08-21T16:18:44;4.05;;;2.45;;
70683;SDS011;58263;48.146;11.440;2022-08-21T16:21:09;2.67;;;2.30;;
70683;SDS011;58263;48.146;11.440;2022-08-21T16:23:35;2.78;;;2.40;;
70683;SDS011;58263;48.146;11.440;2022-08-21T16:26:01;2.70;;;2.45;;
70683;SDS011;58263;48.146;11.440;2022-08-21T16:28:28;3.80;;;2.55;;